sensor_id;sensor_type;location;lat;lon;timestamp;P1;durP1;ratioP1;P2;durP2;ratioP2
59607;SDS011;45426;44.726;10.390;2024-01-27T00:00:43;93.20;;;45.15;;
59607;SDS011;45426;44.726;10.390;2024-01-27T00:03:08;91.80;;;44.28;;
59607;SDS011;45426;44.726;10.390;2024-01-27T00:05:34;186.60;;;43.13;;
59607;SDS011;45426;44.726;10.390;2024-01-27T00:07:59;113.25;;;43.28;;
59607;SDS011;45426;44.726;10.390;2024-01-27T00:10:25;144.25;;;43.38;;
59607;SDS011;45426;44.726;10.390;2024-01-27T00:12:50;133.23;;;40.42;;
59607;SDS011;45426;44.726;10.390;2024-01-27T00:15:15;120.22;;;41.33;;
59607;SDS011;45426;44.726;10.390;2024-01-27T00:17:41;171.43;;;40.15;;
59607;SDS011;45426;44.726;10.390;2024-01-27T00:20:06;94.10;;;41.10;;
59607;SDS011;45426;44.726;10.390;2024-01-27T00:22:32;142.50;;;37.90;;
59607;SDS011;45426;44.726;10.390;2024-01-27T00:24:58;115.50;;;36.63;;
59607;SDS011;45426;44.726;10.390;2024-01-27T00:27:23;114.00;;;35.30;;
59607;SDS011;45426;44.726;10.390;2024-01-27T00:29:48;102.10;;;33.63;;
59607;SDS011;45426;44.726;10.390;2024-01-27T00:32:14;69.18;;;36.35;;
59607;SDS011;45426;44.726;10.390;2024-01-27T00:34:39;76.88;;;35.22;;
59607;SDS011;45426;44.726;10.390;2024-01-27T00:37:04;65.63;;;35.28;;
59607;SDS011;45426;44.726;10.390;2024-01-27T00:39:31;66.35;;;35.50;;
59607;SDS011;45426;44.726;10.390;2024-01-27T00:41:57;70.70;;;36.95;;
59607;SDS011;45426;44.726;10.390;2024-01-27T00:44:23;75.60;;;38.53;;
59607;SDS011;45426;44.726;10.390;2024-01-27T00:46:49;75.32;;;38.63;;
59607;SDS011;45426;44.726;10.390;2024-01-27T00:49:14;79.22;;;39.70;;
59607;SDS011;45426;44.726;10.390;2024-01-27T00:51:40;76.85;;;42.88;;
59607;SDS011;45426;44.726;10.390;2024-01-27T00:54:05;82.38;;;41.95;;
59607;SDS011;45426;44.726;10.390;2024-01-27T00:56:31;82.68;;;42.10;;
59607;SDS011;45426;44.726;10.390;2024-01-27T00:58:57;90.00;;;44.90;;
59607;SDS011;45426;44.726;10.390;2024-01-27T01:01:22;93.55;;;43.60;;
59607;SDS011;45426;44.726;10.390;2024-01-27T01:03:47;85.63;;;42.67;;
59607;SDS011;45426;44.726;10.390;2024-01-27T01:06:13;86.68;;;41.85;;
59607;SDS011;45426;44.726;10.390;2024-01-27T01:08:38;96.68;;;43.67;;
59607;SDS011;45426;44.726;10.390;2024-01-27T01:11:04;92.43;;;43.70;;
59607;SDS011;45426;44.726;10.390;2024-01-27T01:13:29;95.97;;;43.38;;
59607;SDS011;45426;44.726;10.390;2024-01-27T01:15:54;90.03;;;42.75;;
59607;SDS011;45426;44.726;10.390;2024-01-27T01:18:20;86.60;;;41.42;;
59607;SDS011;45426;44.726;10.390;2024-01-27T01:20:45;90.80;;;41.45;;
59607;SDS011;45426;44.726;10.390;2024-01-27T01:23:11;83.57;;;39.75;;
59607;SDS011;45426;44.726;10.390;2024-01-27T01:25:36;84.90;;;38.92;;
59607;SDS011;45426;44.726;10.390;2024-01-27T01:28:01;83.43;;;38.42;;
59607;SDS011;45426;44.726;10.390;2024-01-27T01:30:28;69.95;;;34.38;;
59607;SDS011;45426;44.726;10.390;2024-01-27T01:32:53;74.20;;;36.22;;
59607;SDS011;45426;44.726;10.390;2024-01-27T01:35:19;68.18;;;32.42;;
59607;SDS011;45426;44.726;10.390;2024-01-27T01:37:44;60.70;;;29.52;;
59607;SDS011;45426;44.726;10.390;2024-01-27T01:40:10;62.78;;;29.90;;
59607;SDS011;45426;44.726;10.390;2024-01-27T01:42:36;56.70;;;27.17;;
59607;SDS011;45426;44.726;10.390;2024-01-27T01:45:01;52.88;;;25.92;;
59607;SDS011;45426;44.726;10.390;2024-01-27T01:47:27;52.53;;;25.55;;
59607;SDS011;45426;44.726;10.390;2024-01-27T01:49:53;48.42;;;24.02;;
59607;SDS011;45426;44.726;10.390;2024-01-27T01:52:19;50.90;;;24.55;;
59607;SDS011;45426;44.726;10.390;2024-01-27T01:54:49;55.10;;;25.45;;
59607;SDS011;45426;44.726;10.390;2024-01-27T01:57:15;52.30;;;25.63;;
59607;SDS011;45426;44.726;10.390;2024-01-27T01:59:41;50.50;;;25.15;;
59607;SDS011;45426;44.726;10.390;2024-01-27T02:02:09;54.03;;;27.10;;
59607;SDS011;45426;44.726;10.390;2024-01-27T02:04:44;51.10;;;25.38;;
59607;SDS011;45426;44.726;10.390;2024-01-27T02:07:14;56.05;;;28.27;;
59607;SDS011;45426;44.726;10.390;2024-01-27T02:09:39;52.25;;;27.92;;
59607;SDS011;45426;44.726;10.390;2024-01-27T02:12:05;53.05;;;26.50;;
59607;SDS011;45426;44.726;10.390;2024-01-27T02:14:31;54.38;;;26.95;;
59607;SDS011;45426;44.726;10.390;2024-01-27T02:16:56;51.50;;;25.83;;
59607;SDS011;45426;44.726;10.390;2024-01-27T02:19:22;49.53;;;26.10;;
59607;SDS011;45426;44.726;10.390;2024-01-27T02:21:48;52.08;;;26.23;;
59607;SDS011;45426;44.726;10.390;2024-01-27T02:24:13;49.83;;;25.98;;
59607;SDS011;45426;44.726;10.390;2024-01-27T02:26:39;45.83;;;24.15;;
59607;SDS011;45426;44.726;10.390;2024-01-27T02:29:04;40.47;;;21.02;;
59607;SDS011;45426;44.726;10.390;2024-01-27T02:31:30;45.72;;;21.98;;
59607;SDS011;45426;44.726;10.390;2024-01-27T02:33:55;46.75;;;22.83;;
59607;SDS011;45426;44.726;10.390;2024-01-27T02:36:21;44.67;;;21.58;;
59607;SDS011;45426;44.726;10.390;2024-01-27T02:38:46;41.53;;;20.83;;
59607;SDS011;45426;44.726;10.390;2024-01-27T02:41:11;43.80;;;20.95;;
59607;SDS011;45426;44.726;10.390;2024-01-27T02:43:37;38.95;;;20.63;;
59607;SDS011;45426;44.726;10.390;2024-01-27T02:46:06;37.78;;;18.77;;
59607;SDS011;45426;44.726;10.390;2024-01-27T02:48:35;39.60;;;20.30;;
59607;SDS011;45426;44.726;10.390;2024-01-27T02:51:04;36.80;;;19.00;;
59607;SDS011;45426;44.726;10.390;2024-01-27T02:53:29;41.00;;;21.02;;
59607;SDS011;45426;44.726;10.390;2024-01-27T02:55:55;40.90;;;20.27;;
59607;SDS011;45426;44.726;10.390;2024-01-27T02:58:22;39.35;;;20.17;;
59607;SDS011;45426;44.726;10.390;2024-01-27T03:00:47;37.95;;;18.98;;
59607;SDS011;45426;44.726;10.390;2024-01-27T03:03:13;37.85;;;19.52;;
59607;SDS011;45426;44.726;10.390;2024-01-27T03:05:40;38.00;;;19.35;;
59607;SDS011;45426;44.726;10.390;2024-01-27T03:08:05;38.63;;;20.45;;
59607;SDS011;45426;44.726;10.390;2024-01-27T03:10:31;44.53;;;20.52;;
59607;SDS011;45426;44.726;10.390;2024-01-27T03:12:57;38.97;;;20.20;;
59607;SDS011;45426;44.726;10.390;2024-01-27T03:15:22;39.47;;;20.38;;
59607;SDS011;45426;44.726;10.390;2024-01-27T03:17:48;38.28;;;20.33;;
59607;SDS011;45426;44.726;10.390;2024-01-27T03:20:13;37.53;;;19.33;;
59607;SDS011;45426;44.726;10.390;2024-01-27T03:22:38;34.80;;;18.60;;
59607;SDS011;45426;44.726;10.390;2024-01-27T03:25:05;35.65;;;18.20;;
59607;SDS011;45426;44.726;10.390;2024-01-27T03:27:32;35.13;;;17.88;;
59607;SDS011;45426;44.726;10.390;2024-01-27T03:29:59;32.05;;;16.85;;
59607;SDS011;45426;44.726;10.390;2024-01-27T03:32:26;31.70;;;16.95;;
59607;SDS011;45426;44.726;10.390;2024-01-27T03:34:52;31.95;;;16.27;;
59607;SDS011;45426;44.726;10.390;2024-01-27T03:37:17;30.35;;;15.80;;
59607;SDS011;45426;44.726;10.390;2024-01-27T03:39:42;30.75;;;16.55;;
59607;SDS011;45426;44.726;10.390;2024-01-27T03:42:08;34.53;;;17.92;;
59607;SDS011;45426;44.726;10.390;2024-01-27T03:44:33;37.58;;;17.80;;
59607;SDS011;45426;44.726;10.390;2024-01-27T03:46:59;34.25;;;17.58;;
59607;SDS011;45426;44.726;10.390;2024-01-27T03:49:24;33.47;;;17.15;;
59607;SDS011;45426;44.726;10.390;2024-01-27T03:51:50;36.78;;;18.35;;
59607;SDS011;45426;44.726;10.390;2024-01-27T03:54:15;35.25;;;17.63;;
59607;SDS011;45426;44.726;10.390;2024-01-27T03:56:41;36.33;;;17.88;;
59607;SDS011;45426;44.726;10.390;2024-01-27T03:59:07;35.80;;;17.75;;
59607;SDS011;45426;44.726;10.390;2024-01-27T04:01:34;35.15;;;17.85;;
59607;SDS011;45426;44.726;10.390;2024-01-27T04:04:00;35.50;;;17.95;;
59607;SDS011;45426;44.726;10.390;2024-01-27T04:06:26;34.83;;;17.50;;
59607;SDS011;45426;44.726;10.390;2024-01-27T04:08:51;32.10;;;15.93;;
59607;SDS011;45426;44.726;10.390;2024-01-27T04:11:20;32.35;;;16.52;;
59607;SDS011;45426;44.726;10.390;2024-01-27T04:13:49;29.40;;;15.20;;
59607;SDS011;45426;44.726;10.390;2024-01-27T04:16:17;29.35;;;15.05;;
59607;SDS011;45426;44.726;10.390;2024-01-27T04:18:43;30.65;;;15.23;;
59607;SDS011;45426;44.726;10.390;2024-01-27T04:21:08;31.70;;;16.40;;
59607;SDS011;45426;44.726;10.390;2024-01-27T04:23:34;32.78;;;16.58;;
59607;SDS011;45426;44.726;10.390;2024-01-27T04:25:59;33.75;;;16.63;;
59607;SDS011;45426;44.726;10.390;2024-01-27T04:28:25;35.40;;;17.30;;
59607;SDS011;45426;44.726;10.390;2024-01-27T04:30:50;28.60;;;15.15;;
59607;SDS011;45426;44.726;10.390;2024-01-27T04:33:16;29.33;;;15.85;;
59607;SDS011;45426;44.726;10.390;2024-01-27T04:35:41;30.50;;;15.68;;
59607;SDS011;45426;44.726;10.390;2024-01-27T04:38:10;31.27;;;15.13;;
59607;SDS011;45426;44.726;10.390;2024-01-27T04:40:35;30.40;;;14.98;;
59607;SDS011;45426;44.726;10.390;2024-01-27T04:43:01;28.92;;;14.70;;
59607;SDS011;45426;44.726;10.390;2024-01-27T04:45:27;30.70;;;15.57;;
59607;SDS011;45426;44.726;10.390;2024-01-27T04:47:52;28.40;;;14.05;;
59607;SDS011;45426;44.726;10.390;2024-01-27T04:50:19;28.63;;;14.13;;
59607;SDS011;45426;44.726;10.390;2024-01-27T04:52:44;31.02;;;15.48;;
59607;SDS011;45426;44.726;10.390;2024-01-27T04:55:10;30.52;;;15.75;;
59607;SDS011;45426;44.726;10.390;2024-01-27T04:57:36;29.35;;;15.27;;
59607;SDS011;45426;44.726;10.390;2024-01-27T05:00:01;28.60;;;14.55;;
59607;SDS011;45426;44.726;10.390;2024-01-27T05:02:28;28.95;;;15.15;;
59607;SDS011;45426;44.726;10.390;2024-01-27T05:04:53;30.80;;;15.38;;
59607;SDS011;45426;44.726;10.390;2024-01-27T05:07:19;29.77;;;15.10;;
59607;SDS011;45426;44.726;10.390;2024-01-27T05:09:44;31.90;;;15.70;;
59607;SDS011;45426;44.726;10.390;2024-01-27T05:12:09;30.65;;;15.35;;
59607;SDS011;45426;44.726;10.390;2024-01-27T05:14:35;31.17;;;15.20;;
59607;SDS011;45426;44.726;10.390;2024-01-27T05:17:00;31.70;;;16.13;;
59607;SDS011;45426;44.726;10.390;2024-01-27T05:19:25;32.58;;;15.07;;
59607;SDS011;45426;44.726;10.390;2024-01-27T05:21:51;30.88;;;16.08;;
59607;SDS011;45426;44.726;10.390;2024-01-27T05:24:16;35.38;;;18.40;;
59607;SDS011;45426;44.726;10.390;2024-01-27T05:26:42;34.85;;;17.67;;
59607;SDS011;45426;44.726;10.390;2024-01-27T05:29:07;30.92;;;16.42;;
59607;SDS011;45426;44.726;10.390;2024-01-27T05:31:33;37.10;;;18.20;;
59607;SDS011;45426;44.726;10.390;2024-01-27T05:33:59;30.42;;;16.10;;
59607;SDS011;45426;44.726;10.390;2024-01-27T05:36:25;32.63;;;17.20;;
59607;SDS011;45426;44.726;10.390;2024-01-27T05:38:51;32.25;;;16.45;;
59607;SDS011;45426;44.726;10.390;2024-01-27T05:41:16;31.40;;;16.48;;
59607;SDS011;45426;44.726;10.390;2024-01-27T05:43:42;37.35;;;17.48;;
59607;SDS011;45426;44.726;10.390;2024-01-27T05:46:08;31.00;;;16.98;;
59607;SDS011;45426;44.726;10.390;2024-01-27T05:48:34;32.75;;;17.05;;
59607;SDS011;45426;44.726;10.390;2024-01-27T05:51:00;32.83;;;15.55;;
59607;SDS011;45426;44.726;10.390;2024-01-27T05:53:26;34.72;;;16.35;;
59607;SDS011;45426;44.726;10.390;2024-01-27T05:55:53;30.15;;;14.35;;
59607;SDS011;45426;44.726;10.390;2024-01-27T05:58:19;27.77;;;13.50;;
59607;SDS011;45426;44.726;10.390;2024-01-27T06:00:46;27.20;;;14.43;;
59607;SDS011;45426;44.726;10.390;2024-01-27T06:03:13;31.45;;;15.15;;
59607;SDS011;45426;44.726;10.390;2024-01-27T06:05:38;29.17;;;14.18;;
59607;SDS011;45426;44.726;10.390;2024-01-27T06:08:05;26.70;;;14.20;;
59607;SDS011;45426;44.726;10.390;2024-01-27T06:10:32;29.25;;;14.88;;
59607;SDS011;45426;44.726;10.390;2024-01-27T06:12:57;35.17;;;16.33;;
59607;SDS011;45426;44.726;10.390;2024-01-27T06:15:23;35.58;;;17.90;;
59607;SDS011;45426;44.726;10.390;2024-01-27T06:17:48;31.63;;;16.20;;
59607;SDS011;45426;44.726;10.390;2024-01-27T06:20:13;32.50;;;16.05;;
59607;SDS011;45426;44.726;10.390;2024-01-27T06:22:41;31.63;;;15.85;;
59607;SDS011;45426;44.726;10.390;2024-01-27T06:25:07;33.25;;;15.82;;
59607;SDS011;45426;44.726;10.390;2024-01-27T06:27:33;31.23;;;15.48;;
59607;SDS011;45426;44.726;10.390;2024-01-27T06:29:59;31.25;;;14.55;;
59607;SDS011;45426;44.726;10.390;2024-01-27T06:32:24;33.42;;;16.02;;
59607;SDS011;45426;44.726;10.390;2024-01-27T06:34:49;33.15;;;16.98;;
59607;SDS011;45426;44.726;10.390;2024-01-27T06:37:15;32.70;;;16.85;;
59607;SDS011;45426;44.726;10.390;2024-01-27T06:39:40;33.55;;;16.90;;
59607;SDS011;45426;44.726;10.390;2024-01-27T06:42:06;32.63;;;16.20;;
59607;SDS011;45426;44.726;10.390;2024-01-27T06:44:31;34.30;;;16.60;;
59607;SDS011;45426;44.726;10.390;2024-01-27T06:46:56;34.65;;;15.80;;
59607;SDS011;45426;44.726;10.390;2024-01-27T06:49:22;28.52;;;14.82;;
59607;SDS011;45426;44.726;10.390;2024-01-27T06:51:47;30.58;;;17.58;;
59607;SDS011;45426;44.726;10.390;2024-01-27T06:54:12;33.95;;;18.38;;
59607;SDS011;45426;44.726;10.390;2024-01-27T06:56:38;35.55;;;19.50;;
59607;SDS011;45426;44.726;10.390;2024-01-27T06:59:03;39.58;;;22.08;;
59607;SDS011;45426;44.726;10.390;2024-01-27T07:01:29;43.05;;;23.25;;
59607;SDS011;45426;44.726;10.390;2024-01-27T07:03:54;39.88;;;23.25;;
59607;SDS011;45426;44.726;10.390;2024-01-27T07:06:20;40.20;;;23.23;;
59607;SDS011;45426;44.726;10.390;2024-01-27T07:08:45;38.13;;;23.30;;
59607;SDS011;45426;44.726;10.390;2024-01-27T07:11:10;30.70;;;15.82;;
59607;SDS011;45426;44.726;10.390;2024-01-27T07:13:37;31.25;;;17.75;;
59607;SDS011;45426;44.726;10.390;2024-01-27T07:16:02;30.85;;;16.13;;
59607;SDS011;45426;44.726;10.390;2024-01-27T07:18:28;31.02;;;17.02;;
59607;SDS011;45426;44.726;10.390;2024-01-27T07:20:54;32.22;;;17.30;;
59607;SDS011;45426;44.726;10.390;2024-01-27T07:23:20;32.78;;;17.08;;
59607;SDS011;45426;44.726;10.390;2024-01-27T07:25:45;28.98;;;15.85;;
59607;SDS011;45426;44.726;10.390;2024-01-27T07:28:11;28.42;;;15.98;;
59607;SDS011;45426;44.726;10.390;2024-01-27T07:30:37;30.67;;;16.70;;
59607;SDS011;45426;44.726;10.390;2024-01-27T07:33:03;29.98;;;17.05;;
59607;SDS011;45426;44.726;10.390;2024-01-27T07:35:30;29.20;;;16.95;;
59607;SDS011;45426;44.726;10.390;2024-01-27T07:37:56;31.20;;;17.48;;
59607;SDS011;45426;44.726;10.390;2024-01-27T07:40:22;33.08;;;17.75;;
59607;SDS011;45426;44.726;10.390;2024-01-27T07:42:47;30.50;;;16.20;;
59607;SDS011;45426;44.726;10.390;2024-01-27T07:45:13;31.45;;;16.88;;
59607;SDS011;45426;44.726;10.390;2024-01-27T07:47:38;28.77;;;15.50;;
59607;SDS011;45426;44.726;10.390;2024-01-27T07:50:04;28.30;;;15.00;;
59607;SDS011;45426;44.726;10.390;2024-01-27T07:52:29;27.50;;;13.52;;
59607;SDS011;45426;44.726;10.390;2024-01-27T07:54:55;26.35;;;13.18;;
59607;SDS011;45426;44.726;10.390;2024-01-27T07:57:20;21.40;;;12.10;;
59607;SDS011;45426;44.726;10.390;2024-01-27T07:59:46;23.10;;;13.50;;
59607;SDS011;45426;44.726;10.390;2024-01-27T08:02:11;21.67;;;11.75;;
59607;SDS011;45426;44.726;10.390;2024-01-27T08:04:37;23.40;;;12.27;;
59607;SDS011;45426;44.726;10.390;2024-01-27T08:07:03;23.20;;;12.50;;
59607;SDS011;45426;44.726;10.390;2024-01-27T08:09:34;20.73;;;11.23;;
59607;SDS011;45426;44.726;10.390;2024-01-27T08:12:00;19.67;;;11.10;;
59607;SDS011;45426;44.726;10.390;2024-01-27T08:14:27;19.77;;;10.40;;
59607;SDS011;45426;44.726;10.390;2024-01-27T08:16:55;18.75;;;10.40;;
59607;SDS011;45426;44.726;10.390;2024-01-27T08:19:21;18.88;;;10.27;;
59607;SDS011;45426;44.726;10.390;2024-01-27T08:21:46;18.17;;;10.55;;
59607;SDS011;45426;44.726;10.390;2024-01-27T08:24:12;20.45;;;10.68;;
59607;SDS011;45426;44.726;10.390;2024-01-27T08:26:38;21.60;;;10.55;;
59607;SDS011;45426;44.726;10.390;2024-01-27T08:29:04;19.35;;;10.07;;
59607;SDS011;45426;44.726;10.390;2024-01-27T08:31:29;19.45;;;9.95;;
59607;SDS011;45426;44.726;10.390;2024-01-27T08:33:55;20.70;;;10.57;;
59607;SDS011;45426;44.726;10.390;2024-01-27T08:36:20;15.55;;;9.48;;
59607;SDS011;45426;44.726;10.390;2024-01-27T08:38:45;29.48;;;10.98;;
59607;SDS011;45426;44.726;10.390;2024-01-27T08:41:11;15.05;;;9.25;;
59607;SDS011;45426;44.726;10.390;2024-01-27T08:43:37;19.00;;;12.30;;
59607;SDS011;45426;44.726;10.390;2024-01-27T08:46:03;19.05;;;13.88;;
59607;SDS011;45426;44.726;10.390;2024-01-27T08:48:28;15.80;;;10.68;;
59607;SDS011;45426;44.726;10.390;2024-01-27T08:50:53;17.45;;;11.23;;
59607;SDS011;45426;44.726;10.390;2024-01-27T08:53:19;17.60;;;9.75;;
59607;SDS011;45426;44.726;10.390;2024-01-27T08:55:44;15.82;;;9.63;;
59607;SDS011;45426;44.726;10.390;2024-01-27T08:58:10;17.75;;;10.82;;
59607;SDS011;45426;44.726;10.390;2024-01-27T09:00:35;19.70;;;12.30;;
59607;SDS011;45426;44.726;10.390;2024-01-27T09:03:01;18.73;;;11.05;;
59607;SDS011;45426;44.726;10.390;2024-01-27T09:05:27;17.92;;;12.25;;
59607;SDS011;45426;44.726;10.390;2024-01-27T09:07:53;19.13;;;13.07;;
59607;SDS011;45426;44.726;10.390;2024-01-27T09:10:18;20.15;;;13.40;;
59607;SDS011;45426;44.726;10.390;2024-01-27T09:12:44;20.20;;;13.10;;
59607;SDS011;45426;44.726;10.390;2024-01-27T09:15:09;20.83;;;13.57;;
59607;SDS011;45426;44.726;10.390;2024-01-27T09:17:35;23.17;;;14.48;;
59607;SDS011;45426;44.726;10.390;2024-01-27T09:20:01;21.05;;;14.40;;
59607;SDS011;45426;44.726;10.390;2024-01-27T09:22:26;19.92;;;14.68;;
59607;SDS011;45426;44.726;10.390;2024-01-27T09:24:52;24.02;;;15.95;;
59607;SDS011;45426;44.726;10.390;2024-01-27T09:27:18;26.10;;;16.23;;
59607;SDS011;45426;44.726;10.390;2024-01-27T09:29:43;24.38;;;16.33;;
59607;SDS011;45426;44.726;10.390;2024-01-27T09:32:09;25.73;;;16.45;;
59607;SDS011;45426;44.726;10.390;2024-01-27T09:34:34;27.23;;;18.67;;
59607;SDS011;45426;44.726;10.390;2024-01-27T09:37:00;27.55;;;19.42;;
59607;SDS011;45426;44.726;10.390;2024-01-27T09:39:26;28.25;;;19.98;;
59607;SDS011;45426;44.726;10.390;2024-01-27T09:41:52;27.15;;;20.35;;
59607;SDS011;45426;44.726;10.390;2024-01-27T09:44:19;26.70;;;18.88;;
59607;SDS011;45426;44.726;10.390;2024-01-27T09:46:45;26.77;;;19.20;;
59607;SDS011;45426;44.726;10.390;2024-01-27T09:49:12;27.27;;;19.92;;
59607;SDS011;45426;44.726;10.390;2024-01-27T09:51:38;28.27;;;19.30;;
59607;SDS011;45426;44.726;10.390;2024-01-27T09:54:06;24.77;;;18.55;;
59607;SDS011;45426;44.726;10.390;2024-01-27T09:56:31;25.60;;;18.63;;
59607;SDS011;45426;44.726;10.390;2024-01-27T09:58:57;25.40;;;19.33;;
59607;SDS011;45426;44.726;10.390;2024-01-27T10:01:24;27.17;;;19.70;;
59607;SDS011;45426;44.726;10.390;2024-01-27T10:03:52;25.90;;;20.35;;
59607;SDS011;45426;44.726;10.390;2024-01-27T10:06:19;24.13;;;18.92;;
59607;SDS011;45426;44.726;10.390;2024-01-27T10:08:51;25.60;;;20.00;;
59607;SDS011;45426;44.726;10.390;2024-01-27T10:11:18;26.95;;;19.83;;
59607;SDS011;45426;44.726;10.390;2024-01-27T10:13:53;25.08;;;19.65;;
59607;SDS011;45426;44.726;10.390;2024-01-27T10:16:22;25.52;;;18.98;;
59607;SDS011;45426;44.726;10.390;2024-01-27T10:18:58;25.92;;;19.38;;
59607;SDS011;45426;44.726;10.390;2024-01-27T10:21:25;24.10;;;18.30;;
59607;SDS011;45426;44.726;10.390;2024-01-27T10:23:51;23.77;;;18.90;;
59607;SDS011;45426;44.726;10.390;2024-01-27T10:26:17;25.45;;;18.80;;
59607;SDS011;45426;44.726;10.390;2024-01-27T10:28:42;22.02;;;18.33;;
59607;SDS011;45426;44.726;10.390;2024-01-27T10:31:11;24.48;;;18.50;;
59607;SDS011;45426;44.726;10.390;2024-01-27T10:33:37;25.25;;;18.65;;
59607;SDS011;45426;44.726;10.390;2024-01-27T10:36:03;26.77;;;19.15;;
59607;SDS011;45426;44.726;10.390;2024-01-27T10:38:38;28.80;;;20.63;;
59607;SDS011;45426;44.726;10.390;2024-01-27T10:41:06;29.92;;;20.25;;
59607;SDS011;45426;44.726;10.390;2024-01-27T10:43:35;30.85;;;19.35;;
59607;SDS011;45426;44.726;10.390;2024-01-27T10:46:03;26.80;;;18.13;;
59607;SDS011;45426;44.726;10.390;2024-01-27T10:48:31;27.33;;;18.13;;
59607;SDS011;45426;44.726;10.390;2024-01-27T10:50:58;27.77;;;18.10;;
59607;SDS011;45426;44.726;10.390;2024-01-27T10:53:28;27.65;;;18.38;;
59607;SDS011;45426;44.726;10.390;2024-01-27T10:56:00;30.42;;;19.02;;
59607;SDS011;45426;44.726;10.390;2024-01-27T10:58:29;30.52;;;19.40;;
59607;SDS011;45426;44.726;10.390;2024-01-27T11:00:56;31.08;;;19.92;;
59607;SDS011;45426;44.726;10.390;2024-01-27T11:03:22;32.88;;;20.35;;
59607;SDS011;45426;44.726;10.390;2024-01-27T11:05:48;36.53;;;20.38;;
59607;SDS011;45426;44.726;10.390;2024-01-27T11:08:16;30.48;;;19.20;;
59607;SDS011;45426;44.726;10.390;2024-01-27T11:10:44;31.67;;;19.77;;
59607;SDS011;45426;44.726;10.390;2024-01-27T11:13:10;33.20;;;19.58;;
59607;SDS011;45426;44.726;10.390;2024-01-27T11:15:36;33.78;;;20.23;;
59607;SDS011;45426;44.726;10.390;2024-01-27T11:18:02;32.08;;;20.15;;
59607;SDS011;45426;44.726;10.390;2024-01-27T11:20:32;31.77;;;19.55;;
59607;SDS011;45426;44.726;10.390;2024-01-27T11:23:13;34.15;;;21.15;;
59607;SDS011;45426;44.726;10.390;2024-01-27T11:25:39;31.50;;;20.63;;
59607;SDS011;45426;44.726;10.390;2024-01-27T11:28:15;34.67;;;22.20;;
59607;SDS011;45426;44.726;10.390;2024-01-27T11:30:45;35.22;;;21.38;;
59607;SDS011;45426;44.726;10.390;2024-01-27T11:33:12;33.95;;;21.55;;
59607;SDS011;45426;44.726;10.390;2024-01-27T11:35:37;35.88;;;22.35;;
59607;SDS011;45426;44.726;10.390;2024-01-27T11:38:02;36.17;;;22.17;;
59607;SDS011;45426;44.726;10.390;2024-01-27T11:40:28;35.55;;;21.90;;
59607;SDS011;45426;44.726;10.390;2024-01-27T11:42:57;38.22;;;22.48;;
59607;SDS011;45426;44.726;10.390;2024-01-27T11:45:24;36.05;;;22.48;;
59607;SDS011;45426;44.726;10.390;2024-01-27T11:47:49;38.10;;;22.30;;
59607;SDS011;45426;44.726;10.390;2024-01-27T11:50:17;36.60;;;22.52;;
59607;SDS011;45426;44.726;10.390;2024-01-27T11:52:43;36.60;;;23.17;;
59607;SDS011;45426;44.726;10.390;2024-01-27T11:55:09;36.70;;;22.20;;
59607;SDS011;45426;44.726;10.390;2024-01-27T11:57:34;36.55;;;21.27;;
59607;SDS011;45426;44.726;10.390;2024-01-27T12:00:00;36.13;;;21.33;;
59607;SDS011;45426;44.726;10.390;2024-01-27T12:02:25;35.97;;;21.48;;
59607;SDS011;45426;44.726;10.390;2024-01-27T12:04:51;34.13;;;20.35;;
59607;SDS011;45426;44.726;10.390;2024-01-27T12:07:17;33.03;;;20.48;;
59607;SDS011;45426;44.726;10.390;2024-01-27T12:09:44;32.70;;;20.08;;
59607;SDS011;45426;44.726;10.390;2024-01-27T12:12:10;34.25;;;21.05;;
59607;SDS011;45426;44.726;10.390;2024-01-27T12:14:41;33.30;;;19.45;;
59607;SDS011;45426;44.726;10.390;2024-01-27T12:17:10;33.88;;;20.15;;
59607;SDS011;45426;44.726;10.390;2024-01-27T12:19:36;35.20;;;20.58;;
59607;SDS011;45426;44.726;10.390;2024-01-27T12:22:02;36.70;;;21.77;;
59607;SDS011;45426;44.726;10.390;2024-01-27T12:24:28;36.35;;;21.42;;
59607;SDS011;45426;44.726;10.390;2024-01-27T12:26:55;34.47;;;20.77;;
59607;SDS011;45426;44.726;10.390;2024-01-27T12:29:22;34.33;;;20.42;;
59607;SDS011;45426;44.726;10.390;2024-01-27T12:31:48;38.22;;;20.90;;
59607;SDS011;45426;44.726;10.390;2024-01-27T12:34:13;37.00;;;21.35;;
59607;SDS011;45426;44.726;10.390;2024-01-27T12:36:42;36.05;;;20.73;;
59607;SDS011;45426;44.726;10.390;2024-01-27T12:39:08;34.67;;;20.08;;
59607;SDS011;45426;44.726;10.390;2024-01-27T12:41:34;34.35;;;19.88;;
59607;SDS011;45426;44.726;10.390;2024-01-27T12:44:00;36.55;;;19.98;;
59607;SDS011;45426;44.726;10.390;2024-01-27T12:46:29;37.22;;;22.58;;
59607;SDS011;45426;44.726;10.390;2024-01-27T12:48:55;37.65;;;21.73;;
59607;SDS011;45426;44.726;10.390;2024-01-27T12:51:20;34.15;;;21.13;;
59607;SDS011;45426;44.726;10.390;2024-01-27T12:53:46;34.55;;;20.75;;
59607;SDS011;45426;44.726;10.390;2024-01-27T12:56:12;35.03;;;21.92;;
59607;SDS011;45426;44.726;10.390;2024-01-27T12:58:38;39.78;;;22.35;;
59607;SDS011;45426;44.726;10.390;2024-01-27T13:01:05;36.60;;;21.70;;
59607;SDS011;45426;44.726;10.390;2024-01-27T13:03:31;38.38;;;21.70;;
59607;SDS011;45426;44.726;10.390;2024-01-27T13:05:56;40.15;;;22.58;;
59607;SDS011;45426;44.726;10.390;2024-01-27T13:08:22;36.85;;;21.88;;
59607;SDS011;45426;44.726;10.390;2024-01-27T13:10:48;36.72;;;21.13;;
59607;SDS011;45426;44.726;10.390;2024-01-27T13:13:13;38.08;;;21.00;;
59607;SDS011;45426;44.726;10.390;2024-01-27T13:15:39;38.35;;;21.58;;
59607;SDS011;45426;44.726;10.390;2024-01-27T13:18:04;37.10;;;21.83;;
59607;SDS011;45426;44.726;10.390;2024-01-27T13:20:30;37.80;;;22.23;;
59607;SDS011;45426;44.726;10.390;2024-01-27T13:22:56;37.95;;;21.75;;
59607;SDS011;45426;44.726;10.390;2024-01-27T13:25:23;36.42;;;22.05;;
59607;SDS011;45426;44.726;10.390;2024-01-27T13:27:48;38.97;;;22.52;;
59607;SDS011;45426;44.726;10.390;2024-01-27T13:30:14;44.25;;;26.38;;
59607;SDS011;45426;44.726;10.390;2024-01-27T13:32:39;46.03;;;26.20;;
59607;SDS011;45426;44.726;10.390;2024-01-27T13:35:07;42.92;;;25.63;;
59607;SDS011;45426;44.726;10.390;2024-01-27T13:37:33;43.95;;;26.00;;
59607;SDS011;45426;44.726;10.390;2024-01-27T13:40:02;45.47;;;25.83;;
59607;SDS011;45426;44.726;10.390;2024-01-27T13:42:29;44.05;;;25.08;;
59607;SDS011;45426;44.726;10.390;2024-01-27T13:44:55;43.65;;;26.42;;
59607;SDS011;45426;44.726;10.390;2024-01-27T13:47:20;47.00;;;26.52;;
59607;SDS011;45426;44.726;10.390;2024-01-27T13:49:46;43.13;;;25.88;;
59607;SDS011;45426;44.726;10.390;2024-01-27T13:52:12;44.72;;;25.65;;
59607;SDS011;45426;44.726;10.390;2024-01-27T13:54:37;48.65;;;27.02;;
59607;SDS011;45426;44.726;10.390;2024-01-27T13:57:03;45.72;;;26.17;;
59607;SDS011;45426;44.726;10.390;2024-01-27T13:59:29;46.78;;;26.90;;
59607;SDS011;45426;44.726;10.390;2024-01-27T14:01:55;48.70;;;26.85;;